Avawam, Kentucky
Current Conditions -  °F | °C
As of 7:53 PM on Monday 22 Dec 2014 (Local Time) from KJKL Reporting Station
Broken Clouds Broken Clouds  
Wind Chill: 11°   Ceiling: 8000
Heat Index: 11°   Visibility: 10mi
Dew Point:   Wind: 5mph
Humidity: 63%   Direction: 100°E
Pressure: 29.82"   Gusts: NA
Location:  37.22°N, 83.27°W
Report Text: KJKL 230053Z AUTO 10004KT 10SM SCT065 BKN080 11/04 A2982 RMK AO2 RAE12 SLP099 P0000 T01110044
Loading
Personal Weather Stations






























Interactive Weather Map New forecast layout! Learn more

10-Day Weather Forecast

Advertisements
Track Severe Weather on mobile